createdAt,value
2024-04-01T00:01:20.303Z,30.50
2024-04-01T00:03:50.729Z,30.70
2024-04-01T00:06:19.354Z,28.40
2024-04-01T00:08:48.110Z,25.70
2024-04-01T00:11:16.357Z,30.00
2024-04-01T00:13:44.568Z,34.70
2024-04-01T00:16:12.709Z,34.60
2024-04-01T00:18:41.012Z,30.50
2024-04-01T00:21:09.336Z,30.90
2024-04-01T00:23:37.752Z,31.80
2024-04-01T00:26:05.935Z,28.10
2024-04-01T00:28:34.097Z,27.90
2024-04-01T00:31:02.321Z,38.90
2024-04-01T00:33:32.610Z,21.40
2024-04-01T00:36:00.677Z,28.30
2024-04-01T00:38:29.053Z,29.90
2024-04-01T00:40:59.552Z,27.90
2024-04-01T00:43:27.761Z,33.80
2024-04-01T00:45:56.136Z,29.10
2024-04-01T00:48:26.882Z,31.60
2024-04-01T00:50:57.480Z,35.30
2024-04-01T00:53:28.269Z,27.90
2024-04-01T00:55:56.706Z,27.40
2024-04-01T00:58:25.151Z,24.80
2024-04-01T01:00:54.436Z,31.20
2024-04-01T01:03:22.710Z,28.20
2024-04-01T01:05:51.572Z,27.70
2024-04-01T01:08:19.900Z,30.70
2024-04-01T01:10:48.004Z,28.80
2024-04-01T01:13:18.059Z,27.00
2024-04-01T01:15:47.148Z,27.10
2024-04-01T01:18:17.735Z,24.70
2024-04-01T01:20:48.401Z,25.70
2024-04-01T01:23:18.724Z,27.70
2024-04-01T01:25:46.914Z,33.60
2024-04-01T01:28:15.176Z,32.20
2024-04-01T01:30:43.430Z,28.00
2024-04-01T01:33:11.922Z,47.90
2024-04-01T01:35:41.164Z,55.50
2024-04-01T01:38:14.079Z,45.30
2024-04-01T01:40:42.228Z,31.10
2024-04-01T01:43:10.610Z,29.60
2024-04-01T01:45:38.724Z,34.30
2024-04-01T01:48:07.534Z,28.20
2024-04-01T01:50:35.640Z,29.80
2024-04-01T01:53:03.805Z,29.40
2024-04-01T01:55:31.933Z,26.40
2024-04-01T01:58:00.124Z,24.20
2024-04-01T02:00:28.427Z,26.50
2024-04-01T02:02:57.521Z,26.10
2024-04-01T02:05:25.698Z,27.00
2024-04-01T02:07:53.878Z,25.20
2024-04-01T02:10:25.291Z,26.40
2024-04-01T02:12:53.472Z,24.10
2024-04-01T02:15:24.105Z,26.70
2024-04-01T02:17:52.268Z,25.70
2024-04-01T02:20:20.466Z,30.90
2024-04-01T02:22:51.124Z,28.80
2024-04-01T02:25:19.286Z,27.30
2024-04-01T02:27:48.624Z,31.40
2024-04-01T02:30:17.750Z,20.80
2024-04-01T02:32:46.066Z,32.90
2024-04-01T02:35:16.373Z,27.80
2024-04-01T02:37:47.104Z,26.90
2024-04-01T02:40:17.484Z,38.00
2024-04-01T02:42:45.691Z,22.70
2024-04-01T02:45:13.828Z,26.70
2024-04-01T02:47:44.438Z,19.60
2024-04-01T02:50:12.784Z,25.00
2024-04-01T02:52:40.954Z,23.10
2024-04-01T02:55:11.198Z,21.70
2024-04-01T02:57:39.278Z,28.70
2024-04-01T03:00:08.682Z,23.20
2024-04-01T03:02:36.739Z,33.10
2024-04-01T03:05:05.249Z,32.50
2024-04-01T03:07:33.424Z,29.70
2024-04-01T03:10:01.714Z,29.20
2024-04-01T03:12:29.883Z,28.10
2024-04-01T03:14:58.296Z,32.00
2024-04-01T03:17:32.519Z,25.70
2024-04-01T03:20:00.702Z,28.90
2024-04-01T03:22:29.471Z,28.70
2024-04-01T03:24:57.644Z,25.10
2024-04-01T03:27:25.838Z,28.40
2024-04-01T03:29:56.361Z,22.50
2024-04-01T03:32:24.539Z,24.60
2024-04-01T03:34:52.822Z,26.40
2024-04-01T03:37:21.029Z,29.20
2024-04-01T03:39:51.125Z,30.20
2024-04-01T03:42:19.398Z,28.40
2024-04-01T03:44:53.581Z,32.90
2024-04-01T03:47:21.748Z,32.00
2024-04-01T03:49:51.725Z,36.60
2024-04-01T03:52:20.338Z,39.90
2024-04-01T03:54:49.247Z,39.20
2024-04-01T03:57:17.573Z,44.50
2024-04-01T03:59:45.972Z,34.50
2024-04-01T04:02:17.064Z,37.00
2024-04-01T04:04:45.221Z,34.80
2024-04-01T04:07:13.528Z,43.00
2024-04-01T04:09:41.636Z,38.60
2024-04-01T04:12:11.259Z,38.10
2024-04-01T04:14:40.814Z,36.80
2024-04-01T04:17:11.227Z,54.40
2024-04-01T04:19:39.461Z,37.60
2024-04-01T04:22:10.026Z,39.10
2024-04-01T04:24:38.227Z,41.00
2024-04-01T04:27:06.746Z,44.60
2024-04-01T04:29:34.846Z,50.40
2024-04-01T04:32:10.438Z,35.20
2024-04-01T04:34:39.136Z,43.80
2024-04-01T04:37:08.367Z,44.20
2024-04-01T04:39:37.812Z,40.60
2024-04-01T04:42:06.703Z,45.10
2024-04-01T04:44:37.302Z,47.00
2024-04-01T04:47:05.725Z,45.50
2024-04-01T04:49:33.948Z,37.50
2024-04-01T04:52:02.130Z,42.00
2024-04-01T04:54:30.373Z,49.50
2024-04-01T04:56:58.541Z,46.10
2024-04-01T04:59:26.518Z,45.70
2024-04-01T05:01:54.626Z,53.50
2024-04-01T05:04:22.767Z,50.90
2024-04-01T05:06:55.388Z,46.30
2024-04-01T05:09:24.331Z,42.90
2024-04-01T05:11:52.507Z,53.90
2024-04-01T05:14:22.765Z,46.30
2024-04-01T05:16:54.052Z,57.60
2024-04-01T05:19:22.448Z,44.70
2024-04-01T05:21:50.644Z,50.50
2024-04-01T05:24:18.933Z,52.80
2024-04-01T05:26:47.368Z,44.70
2024-04-01T05:29:15.370Z,57.70
2024-04-01T05:31:43.302Z,56.70
2024-04-01T05:34:11.280Z,57.20
2024-04-01T05:36:39.274Z,57.70
2024-04-01T05:39:07.401Z,54.60
2024-04-01T05:41:35.619Z,48.50
2024-04-01T05:44:06.261Z,43.10
2024-04-01T05:46:34.633Z,50.10
2024-04-01T05:49:05.262Z,55.40
2024-04-01T05:51:36.556Z,42.90
2024-04-01T05:54:07.086Z,45.90
2024-04-01T05:56:36.742Z,48.10
2024-04-01T05:59:05.200Z,49.20
2024-04-01T06:01:33.297Z,45.60
2024-04-01T06:04:01.484Z,47.50
2024-04-01T06:06:30.114Z,48.80
2024-04-01T06:08:58.398Z,44.20
2024-04-01T06:11:27.496Z,55.70
2024-04-01T06:13:55.757Z,50.10
2024-04-01T06:16:23.921Z,45.90
2024-04-01T06:18:52.193Z,53.70
2024-04-01T06:21:22.979Z,45.90
2024-04-01T06:23:51.146Z,54.90
2024-04-01T06:26:19.304Z,40.60
2024-04-01T06:28:49.822Z,47.20
2024-04-01T06:31:23.860Z,42.80
2024-04-01T06:33:52.288Z,51.90
2024-04-01T06:36:23.940Z,50.70
2024-04-01T06:38:52.322Z,56.30
2024-04-01T06:41:20.576Z,55.30
2024-04-01T06:43:48.797Z,45.90
2024-04-01T06:46:16.955Z,55.40
2024-04-01T06:48:46.296Z,50.00
2024-04-01T06:51:14.814Z,53.90
2024-04-01T06:53:42.924Z,55.10
2024-04-01T06:56:10.974Z,52.60
2024-04-01T06:58:39.636Z,50.40
2024-04-01T07:01:07.621Z,59.30
2024-04-01T07:03:36.102Z,58.60
2024-04-01T07:06:07.214Z,58.40
2024-04-01T07:08:35.502Z,59.20
2024-04-01T07:11:04.160Z,52.00
2024-04-01T07:13:32.814Z,60.30
2024-04-01T07:16:01.049Z,55.90
2024-04-01T07:18:31.792Z,57.50
2024-04-01T07:21:02.271Z,55.40
2024-04-01T07:23:30.563Z,75.20
2024-04-01T07:25:58.884Z,67.00
2024-04-01T07:28:27.080Z,58.90
2024-04-01T07:31:04.274Z,63.70
2024-04-01T07:33:32.522Z,59.70
2024-04-01T07:36:03.139Z,61.00
2024-04-01T07:38:31.778Z,61.50
2024-04-01T07:41:02.196Z,62.90
2024-04-01T07:43:33.616Z,56.30
2024-04-01T07:46:02.645Z,54.50
2024-04-01T07:48:31.220Z,51.20
2024-04-01T07:51:04.049Z,50.50
2024-04-01T07:53:33.638Z,54.40
2024-04-01T07:56:11.367Z,58.30
2024-04-01T08:07:53.245Z,56.30
2024-04-01T10:30:00.607Z,61.40
2024-04-01T10:32:54.799Z,54.20
2024-04-01T10:35:47.613Z,59.50
2024-04-01T10:38:39.800Z,59.60
2024-04-01T10:41:19.485Z,48.70
2024-04-01T10:44:24.976Z,58.60
2024-04-01T10:47:17.376Z,55.90
2024-04-01T10:50:26.949Z,45.60
2024-04-01T10:53:31.918Z,46.60
2024-04-01T10:56:37.366Z,51.90
2024-04-01T10:59:30.797Z,52.10
2024-04-01T11:02:20.284Z,59.40
2024-04-01T11:05:08.211Z,55.30
2024-04-01T11:08:07.407Z,56.50
2024-04-01T11:10:48.761Z,49.20
2024-04-01T11:13:20.692Z,44.40
2024-04-01T11:15:55.346Z,42.70
2024-04-01T11:18:41.620Z,52.70
2024-04-01T11:21:35.209Z,49.70
2024-04-01T11:24:09.212Z,49.10
2024-04-01T11:27:08.004Z,60.50
2024-04-01T11:30:27.297Z,54.90
2024-04-01T11:33:04.097Z,50.30
2024-04-01T11:35:51.976Z,53.10
2024-04-01T11:38:44.619Z,42.60
2024-04-01T11:41:16.372Z,41.70
2024-04-01T11:43:47.622Z,49.00
2024-04-01T11:46:19.697Z,41.80
2024-04-01T11:48:56.365Z,49.80
2024-04-01T11:51:34.775Z,39.70
2024-04-01T11:54:04.178Z,59.20
2024-04-01T11:56:39.713Z,40.40
2024-04-01T11:59:09.350Z,37.00
2024-04-01T12:01:42.572Z,52.50
2024-04-01T12:04:20.791Z,52.60
2024-04-01T12:06:49.938Z,53.40
2024-04-01T12:09:21.350Z,48.80
2024-04-01T12:11:49.555Z,42.90
2024-04-01T12:14:27.993Z,42.60
2024-04-01T12:17:02.344Z,49.70
2024-04-01T12:19:31.235Z,56.10
2024-04-01T12:21:59.866Z,56.80
2024-04-01T12:26:57.236Z,44.70
2024-04-01T12:29:27.861Z,52.90
2024-04-01T12:32:01.185Z,46.70
2024-04-01T12:34:36.649Z,43.10
2024-04-01T12:37:05.536Z,58.10
2024-04-01T12:39:43.495Z,51.00
2024-04-01T12:42:11.974Z,51.20
2024-04-01T12:44:44.830Z,58.90
2024-04-01T12:47:14.635Z,65.50
2024-04-01T12:49:43.295Z,57.60
2024-04-01T12:52:13.996Z,53.70
2024-04-01T12:55:21.041Z,54.90
2024-04-01T12:57:59.666Z,51.70
2024-04-01T13:00:31.599Z,50.60
2024-04-01T13:03:12.404Z,56.50
2024-04-01T13:06:07.039Z,47.90
2024-04-01T13:08:53.444Z,59.80
2024-04-01T13:11:45.705Z,55.20
2024-04-01T13:14:52.145Z,50.00
2024-04-01T13:17:40.811Z,58.10
2024-04-01T13:20:26.811Z,55.40
2024-04-01T13:23:04.478Z,57.20
2024-04-01T13:25:39.902Z,58.40
2024-04-01T13:28:14.056Z,67.60
2024-04-01T13:30:56.891Z,57.00
2024-04-01T13:33:48.688Z,64.60
2024-04-01T13:36:27.315Z,56.80
2024-04-01T13:41:42.192Z,53.70
2024-04-01T13:44:34.169Z,60.20
2024-04-01T13:47:10.562Z,60.00
2024-04-01T13:49:47.614Z,57.60
2024-04-01T13:52:50.707Z,62.10
2024-04-01T13:55:21.029Z,48.90
2024-04-01T13:58:08.252Z,53.50
2024-04-01T14:00:50.577Z,58.00
2024-04-01T14:03:36.166Z,56.50
2024-04-01T14:06:27.632Z,55.60
2024-04-01T14:09:08.000Z,59.30
2024-04-01T14:11:47.852Z,63.50
2024-04-01T14:14:27.395Z,53.30
2024-04-01T14:17:17.180Z,60.40
2024-04-01T14:20:08.457Z,51.90
2024-04-01T14:22:37.862Z,55.50
2024-04-01T14:25:06.354Z,52.20
2024-04-01T14:30:02.739Z,37.90
2024-04-01T14:32:34.386Z,55.90
2024-04-01T14:35:04.288Z,55.10
2024-04-01T14:37:32.358Z,62.90
2024-04-01T14:40:03.430Z,63.20
2024-04-01T14:42:34.252Z,58.00
2024-04-01T14:47:30.332Z,64.10
2024-04-01T14:50:00.854Z,62.10
2024-04-01T14:52:29.555Z,59.60
2024-04-01T14:54:58.083Z,68.60
2024-04-01T14:57:26.818Z,62.90
2024-04-01T14:59:55.579Z,59.30
2024-04-01T15:04:52.639Z,51.10
2024-04-01T15:07:20.775Z,64.90
2024-04-01T15:09:50.933Z,71.00
2024-04-01T15:12:19.441Z,64.40
2024-04-01T15:14:51.767Z,55.70
2024-04-01T15:17:20.298Z,56.90
2024-04-01T15:19:48.670Z,74.40
2024-04-01T15:22:16.636Z,67.50
2024-04-01T15:24:44.787Z,55.10
2024-04-01T15:27:13.996Z,53.20
2024-04-01T15:29:42.244Z,55.70
2024-04-01T15:32:17.317Z,54.60
2024-04-01T15:34:46.659Z,55.90
2024-04-01T15:37:14.910Z,69.40
2024-04-01T15:39:43.696Z,55.70
2024-04-01T15:42:12.228Z,73.70
2024-04-01T15:44:41.018Z,55.00
2024-04-01T15:49:40.371Z,59.40
2024-04-01T15:52:08.638Z,68.30
2024-04-01T15:54:36.853Z,55.60
2024-04-01T15:57:06.224Z,56.80
2024-04-01T15:59:39.067Z,64.60
2024-04-01T17:47:57.371Z,65.20
2024-04-01T17:50:28.178Z,77.70
2024-04-01T17:52:57.277Z,75.50
2024-04-01T17:55:25.619Z,78.70
2024-04-01T17:57:54.188Z,70.00
2024-04-01T18:00:23.258Z,62.80
2024-04-01T18:02:51.613Z,85.30
2024-04-01T18:05:20.221Z,70.50
2024-04-01T18:07:52.161Z,70.80
2024-04-01T18:10:20.947Z,72.40
2024-04-01T18:12:49.072Z,76.30
2024-04-01T18:15:17.200Z,77.40
2024-04-01T18:17:45.313Z,80.60
2024-04-01T18:20:13.524Z,82.00
2024-04-01T18:22:47.300Z,74.30
2024-04-01T18:25:18.902Z,71.50
2024-04-01T18:27:47.638Z,79.80
2024-04-01T18:30:21.319Z,70.00
2024-04-01T18:32:51.878Z,70.00
2024-04-01T18:35:20.066Z,67.30
2024-04-01T18:37:51.504Z,67.10
2024-04-01T18:42:55.074Z,68.80
2024-04-01T18:45:23.314Z,71.00
2024-04-01T18:47:51.499Z,74.00
2024-04-01T18:50:32.062Z,79.60
2024-04-01T18:53:01.793Z,67.00
2024-04-01T18:55:29.834Z,63.80
2024-04-01T18:57:58.424Z,66.90
2024-04-01T19:00:26.557Z,77.50
2024-04-01T19:02:54.876Z,88.10
2024-04-01T19:05:26.357Z,67.90
2024-04-01T19:10:24.689Z,60.40
2024-04-01T19:12:55.838Z,79.10
2024-04-01T19:15:23.936Z,68.30
2024-04-01T19:17:52.013Z,76.90
2024-04-01T19:20:23.395Z,76.30
2024-04-01T19:22:57.329Z,73.50
2024-04-01T19:25:28.370Z,71.40
2024-04-01T19:27:56.507Z,65.80
2024-04-01T19:30:27.938Z,72.80
2024-04-01T19:32:56.091Z,76.50
2024-04-01T19:35:24.250Z,78.20
2024-04-01T19:37:54.409Z,79.90
2024-04-01T19:40:22.464Z,68.30
2024-04-01T19:42:53.943Z,80.00
2024-04-01T19:45:22.035Z,75.60
2024-04-01T19:47:50.042Z,68.40
2024-04-01T19:50:18.365Z,73.30
2024-04-01T19:52:46.685Z,82.40
2024-04-01T19:55:17.000Z,72.20
2024-04-01T19:57:45.637Z,82.30
2024-04-01T20:00:14.863Z,58.00
2024-04-01T20:02:43.089Z,44.20
2024-04-01T20:05:11.384Z,33.60
2024-04-01T20:07:39.294Z,38.90
2024-04-01T20:10:27.967Z,31.70
2024-04-01T20:13:02.199Z,27.20
2024-04-01T20:15:32.526Z,25.90
2024-04-01T20:18:00.879Z,24.70
2024-04-01T20:20:28.990Z,18.80
2024-04-01T20:23:02.650Z,22.10
2024-04-01T20:25:31.424Z,12.90
2024-04-01T20:28:06.277Z,15.70
2024-04-01T20:30:38.841Z,8.30
2024-04-01T20:33:09.859Z,9.50
2024-04-01T20:35:41.900Z,12.70
2024-04-01T20:38:10.205Z,10.20
2024-04-01T20:40:41.011Z,9.60
2024-04-01T20:43:14.462Z,6.20
2024-04-01T20:45:45.222Z,11.50
2024-04-01T20:48:26.590Z,5.20
2024-04-01T20:50:55.423Z,9.20
2024-04-01T20:56:07.894Z,7.20
2024-04-01T21:01:07.282Z,4.70
2024-04-01T21:03:38.326Z,7.10
2024-04-01T21:06:18.171Z,3.60
2024-04-01T21:08:51.100Z,6.00
2024-04-01T21:11:21.164Z,4.80
2024-04-01T21:13:50.332Z,4.90
2024-04-01T21:16:20.919Z,7.30
2024-04-01T21:18:49.115Z,3.40
2024-04-01T21:21:17.089Z,3.10
2024-04-01T21:23:47.365Z,6.50
2024-04-01T21:26:15.520Z,6.60
2024-04-01T21:28:45.746Z,6.90
2024-04-01T21:31:15.923Z,7.90
2024-04-01T21:33:47.047Z,6.90
2024-04-01T21:36:17.970Z,4.40
2024-04-01T21:38:45.841Z,4.90
2024-04-01T21:41:13.839Z,4.70
2024-04-01T21:43:47.501Z,4.10
2024-04-01T21:46:16.035Z,4.60
2024-04-01T21:48:46.089Z,3.70
2024-04-01T21:51:19.537Z,5.90
2024-04-01T21:53:47.546Z,4.20
2024-04-01T21:56:15.689Z,4.00
2024-04-01T21:58:45.886Z,3.50
2024-04-01T22:01:16.827Z,4.00
2024-04-01T22:03:45.358Z,4.80
2024-04-01T22:06:13.427Z,4.30
2024-04-01T22:08:44.611Z,3.80
2024-04-01T22:11:12.747Z,4.00
2024-04-01T22:13:43.062Z,2.60
2024-04-01T22:16:11.130Z,2.60
2024-04-01T22:18:39.228Z,4.70
2024-04-01T22:21:07.234Z,7.40
2024-04-01T22:23:35.203Z,4.60
2024-04-01T22:26:03.136Z,3.10
2024-04-01T22:28:34.118Z,2.00
2024-04-01T22:31:04.643Z,2.00
2024-04-01T22:33:32.628Z,2.30
2024-04-01T22:36:01.334Z,2.60
2024-04-01T22:38:29.343Z,3.30
2024-04-01T22:41:05.201Z,2.90
2024-04-01T22:43:33.299Z,2.00
2024-04-01T22:46:02.008Z,2.20
2024-04-01T22:48:32.202Z,2.80
2024-04-01T22:51:02.766Z,1.60
2024-04-01T22:53:30.792Z,2.30
2024-04-01T22:56:01.234Z,1.80
2024-04-01T22:58:31.612Z,3.20
2024-04-01T23:00:59.585Z,2.10
2024-04-01T23:03:27.544Z,2.10
2024-04-01T23:05:57.389Z,2.90
2024-04-01T23:08:25.368Z,3.50
2024-04-01T23:10:53.358Z,3.20
2024-04-01T23:13:21.373Z,2.10
2024-04-01T23:15:51.430Z,3.30
2024-04-01T23:18:21.838Z,1.90
2024-04-01T23:20:51.996Z,2.40
2024-04-01T23:23:19.948Z,2.80
2024-04-01T23:25:58.110Z,4.20
2024-04-01T23:28:26.162Z,2.30
2024-04-01T23:30:54.232Z,2.80
2024-04-01T23:33:22.319Z,3.30
2024-04-01T23:35:50.275Z,1.10
2024-04-01T23:38:18.637Z,1.30
2024-04-01T23:40:46.698Z,2.60
2024-04-01T23:43:15.018Z,3.00
2024-04-01T23:46:09.431Z,4.60
2024-04-01T23:48:37.444Z,2.20
2024-04-01T23:51:16.912Z,1.40
2024-04-01T23:53:46.199Z,3.00
2024-04-01T23:56:14.441Z,2.00
2024-04-01T23:58:48.549Z,1.30
